Lincolnshire, South Carolina
Current Conditions -  °F | °C
As of 4:53 PM on Monday 26 Jan 2015 (Local Time) from KCUB Reporting Station
Overcast Overcast  
Wind Chill: 55°   Ceiling: 7000
Heat Index: 55°   Visibility: 10mi
Dew Point: 35°   Wind: 5mph
Humidity: 47%   Direction: 310°NW
Pressure: 29.66"   Gusts: NA
Location:  34.1179°N, 81.0612°W
Report Text: KCUB 262153Z AUTO 31004KT 10SM BKN070 OVC090 13/02 A2966 RMK AO2 SLP045 T01280017
Loading
Personal Weather Stations






























Interactive Weather Map New forecast layout! Learn more

10-Day Weather Forecast

Advertisements
Track Severe Weather on mobile